Time;durP1;ratioP1;P1;durP2;ratioP2;P2;SDS_P1;SDS_P2;PMS_P1;PMS_P2;Temp;Humidity;BMP_temperature;BMP_pressure;BME280_temperature;BME280_humidity;BME280_pressure;Samples;Min_cycle;Max_cycle;Signal;HPM_P1;HPM_P2
2022/07/12 00:02:19;;;;;;;3.15;1.48;;;;;;;;;;5049837;28;20048;-74
2022/07/12 00:04:45;;;;;;;3.92;1.40;;;;;;;;;;5052519;28;20037;-73
2022/07/12 00:07:11;;;;;;;3.80;1.63;;;;;;;;;;5053053;28;20098;-73
2022/07/12 00:09:37;;;;;;;4.00;1.58;;;;;;;;;;5052587;28;20395;-74
2022/07/12 00:12:03;;;;;;;3.33;1.40;;;;;;;;;;5049417;28;20043;-74
2022/07/12 00:14:29;;;;;;;3.40;1.73;;;;;;;;;;5050132;28;20045;-73
2022/07/12 00:16:55;;;;;;;2.60;1.30;;;;;;;;;;5052105;28;20049;-74
2022/07/12 00:19:21;;;;;;;4.57;1.35;;;;;;;;;;5052145;28;20052;-73
2022/07/12 00:21:47;;;;;;;3.45;1.40;;;;;;;;;;5037020;28;20040;-74
2022/07/12 00:24:13;;;;;;;2.95;1.55;;;;;;;;;;5053348;28;20090;-74
2022/07/12 00:26:39;;;;;;;3.05;1.40;;;;;;;;;;5052296;28;20044;-74
2022/07/12 00:29:06;;;;;;;3.47;1.50;;;;;;;;;;5049283;28;20098;-73
2022/07/12 00:31:32;;;;;;;4.65;1.30;;;;;;;;;;5051043;28;20495;-74
2022/07/12 00:33:58;;;;;;;3.15;1.38;;;;;;;;;;5051929;28;20033;-74
2022/07/12 00:36:24;;;;;;;2.63;1.30;;;;;;;;;;5052163;28;20052;-73
2022/07/12 00:38:50;;;;;;;3.60;1.33;;;;;;;;;;5052475;28;20444;-74
2022/07/12 00:41:17;;;;;;;2.85;1.35;;;;;;;;;;5033982;28;20048;-73
2022/07/12 00:43:43;;;;;;;3.22;1.60;;;;;;;;;;5049150;28;20474;-74
2022/07/12 00:46:09;;;;;;;5.30;1.50;;;;;;;;;;5052888;28;20052;-73
2022/07/12 00:48:36;;;;;;;2.35;1.15;;;;;;;;;;5053013;28;20103;-74
2022/07/12 00:51:02;;;;;;;2.47;1.30;;;;;;;;;;5050408;28;20049;-74
2022/07/12 00:53:28;;;;;;;3.22;1.35;;;;;;;;;;5032452;28;20083;-74
2022/07/12 00:55:55;;;;;;;2.72;1.38;;;;;;;;;;5049544;28;20041;-74
2022/07/12 00:58:22;;;;;;;3.15;1.30;;;;;;;;;;5049968;28;20045;-74
2022/07/12 01:00:49;;;;;;;3.10;1.55;;;;;;;;;;5050456;28;20049;-74
2022/07/12 01:03:15;;;;;;;2.85;1.38;;;;;;;;;;5049669;28;20064;-73
2022/07/12 01:05:42;;;;;;;3.55;1.52;;;;;;;;;;5033966;28;20045;-73
2022/07/12 01:08:08;;;;;;;4.43;1.70;;;;;;;;;;5050619;28;20048;-73
2022/07/12 01:10:35;;;;;;;3.47;1.45;;;;;;;;;;5051179;28;20073;-74
2022/07/12 01:13:02;;;;;;;3.53;1.50;;;;;;;;;;5051812;28;20473;-74
2022/07/12 01:15:29;;;;;;;3.92;1.83;;;;;;;;;;5016099;28;20060;-73
2022/07/12 01:17:56;;;;;;;3.28;1.67;;;;;;;;;;5052692;28;20049;-73
2022/07/12 01:20:23;;;;;;;5.13;1.90;;;;;;;;;;5051318;28;20045;-73
2022/07/12 01:22:57;;;;;;;2.90;1.50;;;;;;;;;;5047820;28;20056;-73
2022/07/12 01:25:23;;;;;;;5.10;1.70;;;;;;;;;;5051032;28;20080;-74
2022/07/12 01:27:49;;;;;;;3.95;1.80;;;;;;;;;;5052508;28;20040;-73
2022/07/12 01:30:15;;;;;;;4.00;2.15;;;;;;;;;;5050647;28;20513;-73
2022/07/12 01:32:42;;;;;;;4.72;2.08;;;;;;;;;;5050932;28;20053;-73
2022/07/12 01:35:09;;;;;;;4.95;2.60;;;;;;;;;;5050570;28;20037;-73
2022/07/12 01:37:39;;;;;;;4.90;2.60;;;;;;;;;;5050115;28;20049;-73
2022/07/12 01:40:12;;;;;;;4.32;2.30;;;;;;;;;;5049938;28;20037;-73
2022/07/12 01:42:38;;;;;;;5.97;2.20;;;;;;;;;;5048843;28;20063;-73
2022/07/12 01:45:06;;;;;;;5.43;1.90;;;;;;;;;;5034640;28;20167;-73
2022/07/12 01:47:32;;;;;;;5.05;1.85;;;;;;;;;;5052340;28;20045;-73
2022/07/12 01:49:59;;;;;;;5.45;2.10;;;;;;;;;;5051756;28;20052;-73
2022/07/12 01:52:25;;;;;;;5.03;2.25;;;;;;;;;;5045822;28;20125;-73
2022/07/12 01:54:51;;;;;;;6.15;2.35;;;;;;;;;;5034946;28;20458;-74
2022/07/12 01:57:17;;;;;;;6.35;2.80;;;;;;;;;;5047857;28;20045;-73
2022/07/12 01:59:43;;;;;;;5.63;2.50;;;;;;;;;;5051696;28;20406;-73
2022/07/12 02:02:09;;;;;;;5.72;3.55;;;;;;;;;;5050671;28;20037;-74
2022/07/12 02:04:36;;;;;;;5.28;3.10;;;;;;;;;;5050097;28;20127;-73
2022/07/12 02:07:02;;;;;;;4.00;1.80;;;;;;;;;;5052569;28;20041;-73
2022/07/12 02:09:28;;;;;;;3.17;1.50;;;;;;;;;;5037676;28;20045;-73
2022/07/12 02:11:54;;;;;;;3.00;1.33;;;;;;;;;;5055003;28;20051;-74
2022/07/12 02:14:21;;;;;;;4.88;1.40;;;;;;;;;;5055814;28;20044;-73
2022/07/12 02:16:47;;;;;;;2.67;1.13;;;;;;;;;;5055080;28;20049;-74
2022/07/12 02:19:14;;;;;;;2.83;1.20;;;;;;;;;;5053512;28;20043;-73
2022/07/12 02:21:40;;;;;;;2.78;1.30;;;;;;;;;;5054903;28;20140;-73
2022/07/12 02:24:06;;;;;;;4.18;1.70;;;;;;;;;;5041272;28;20040;-72
2022/07/12 02:26:36;;;;;;;3.83;1.73;;;;;;;;;;5052936;28;20078;-73
2022/07/12 02:29:03;;;;;;;4.50;2.25;;;;;;;;;;5043994;28;20041;-73
2022/07/12 02:31:29;;;;;;;4.15;2.30;;;;;;;;;;5053752;28;20037;-74
2022/07/12 02:33:55;;;;;;;5.55;1.77;;;;;;;;;;5054385;28;20037;-73
2022/07/12 02:36:22;;;;;;;3.15;1.48;;;;;;;;;;5053435;28;20387;-74
2022/07/12 02:38:48;;;;;;;3.15;1.40;;;;;;;;;;5033682;28;20061;-74
2022/07/12 02:41:14;;;;;;;3.53;1.50;;;;;;;;;;5054871;28;20491;-74
2022/07/12 02:43:40;;;;;;;3.88;1.40;;;;;;;;;;5053420;28;20044;-73
2022/07/12 02:46:08;;;;;;;6.13;1.63;;;;;;;;;;5037518;28;20049;-73
2022/07/12 02:48:34;;;;;;;4.90;1.42;;;;;;;;;;5055132;28;20051;-73
2022/07/12 02:51:00;;;;;;;3.92;1.83;;;;;;;;;;5055339;28;20448;-73
2022/07/12 02:53:26;;;;;;;4.32;2.05;;;;;;;;;;5036244;28;20064;-73
2022/07/12 02:55:53;;;;;;;3.42;1.73;;;;;;;;;;5050664;28;20394;-73
2022/07/12 02:58:19;;;;;;;6.55;1.80;;;;;;;;;;5054310;28;20430;-74
2022/07/12 03:00:45;;;;;;;3.35;1.50;;;;;;;;;;5052445;28;20419;-73
2022/07/12 03:03:14;;;;;;;4.82;1.60;;;;;;;;;;5052666;28;20382;-73
2022/07/12 03:05:40;;;;;;;4.68;1.55;;;;;;;;;;5054877;28;20045;-73
2022/07/12 03:08:07;;;;;;;3.10;1.40;;;;;;;;;;5053796;28;20514;-73
2022/07/12 03:10:34;;;;;;;3.05;1.25;;;;;;;;;;5016208;28;20144;-73
2022/07/12 03:13:00;;;;;;;3.53;1.40;;;;;;;;;;5050088;28;20044;-73
2022/07/12 03:15:27;;;;;;;3.30;1.30;;;;;;;;;;5036065;28;20045;-73
2022/07/12 03:17:53;;;;;;;4.03;1.27;;;;;;;;;;5034689;28;20079;-72
2022/07/12 03:20:19;;;;;;;1.52;0.82;;;;;;;;;;5051565;28;20052;-72
2022/07/12 03:22:48;;;;;;;4.10;0.95;;;;;;;;;;5053892;28;20041;-73
2022/07/12 03:25:14;;;;;;;4.03;0.88;;;;;;;;;;5051813;28;20057;-72
2022/07/12 03:27:41;;;;;;;1.00;0.52;;;;;;;;;;5048659;28;20128;-73
2022/07/12 03:30:08;;;;;;;1.48;0.68;;;;;;;;;;5049592;28;20258;-73
2022/07/12 03:32:34;;;;;;;1.70;0.80;;;;;;;;;;5044624;28;20048;-73
2022/07/12 03:35:00;;;;;;;2.35;1.00;;;;;;;;;;5034354;28;20045;-73
2022/07/12 03:37:26;;;;;;;1.48;0.90;;;;;;;;;;5044801;28;20053;-72
2022/07/12 03:39:53;;;;;;;2.22;1.08;;;;;;;;;;5053499;28;20048;-73
2022/07/12 03:42:19;;;;;;;4.38;1.65;;;;;;;;;;5049812;28;20052;-73
2022/07/12 03:44:45;;;;;;;9.48;1.92;;;;;;;;;;5053790;28;20098;-73
2022/07/12 03:47:11;;;;;;;7.95;2.40;;;;;;;;;;5053202;28;20044;-73
2022/07/12 03:49:37;;;;;;;7.35;2.40;;;;;;;;;;5018918;28;20495;-74
2022/07/12 03:52:03;;;;;;;6.88;1.92;;;;;;;;;;5052215;28;20052;-74
2022/07/12 03:54:30;;;;;;;17.02;1.85;;;;;;;;;;5052803;28;20045;-74
2022/07/12 03:57:14;;;;;;;14.20;2.00;;;;;;;;;;5052333;28;20052;-74
2022/07/12 03:59:43;;;;;;;6.68;1.20;;;;;;;;;;5053115;28;20047;-74
2022/07/12 04:02:09;;;;;;;4.88;1.02;;;;;;;;;;5050718;28;20405;-74
2022/07/12 04:04:36;;;;;;;13.32;1.40;;;;;;;;;;5051668;28;20045;-72
2022/07/12 04:07:02;;;;;;;8.98;1.50;;;;;;;;;;5052788;28;20384;-73
2022/07/12 04:09:28;;;;;;;4.45;1.70;;;;;;;;;;5053653;28;20043;-72
2022/07/12 04:11:54;;;;;;;4.32;1.75;;;;;;;;;;5052937;28;20399;-73
2022/07/12 04:14:20;;;;;;;5.82;1.40;;;;;;;;;;5052993;28;20049;-73
2022/07/12 04:16:46;;;;;;;8.07;1.50;;;;;;;;;;5049609;28;20045;-73
2022/07/12 04:19:12;;;;;;;3.55;1.20;;;;;;;;;;5041179;28;20507;-73
2022/07/12 04:21:38;;;;;;;8.35;1.42;;;;;;;;;;5039234;28;20070;-73
2022/07/12 04:24:05;;;;;;;3.00;1.20;;;;;;;;;;5035678;28;20048;-73
2022/07/12 04:26:31;;;;;;;5.28;1.27;;;;;;;;;;5034837;28;20377;-72
2022/07/12 04:28:57;;;;;;;3.72;1.13;;;;;;;;;;5053017;28;20045;-73
2022/07/12 04:31:23;;;;;;;2.45;1.13;;;;;;;;;;5051015;28;20041;-73
2022/07/12 04:33:49;;;;;;;2.75;1.30;;;;;;;;;;5037920;28;20491;-73
2022/07/12 04:36:15;;;;;;;2.30;1.15;;;;;;;;;;5047319;28;20045;-73
2022/07/12 04:38:41;;;;;;;2.22;0.95;;;;;;;;;;5059522;28;20556;-73
2022/07/12 04:41:07;;;;;;;1.45;0.75;;;;;;;;;;5063079;28;20040;-73
2022/07/12 04:43:33;;;;;;;2.30;0.90;;;;;;;;;;5051759;28;20055;-74
2022/07/12 04:46:12;;;;;;;1.77;0.80;;;;;;;;;;5052761;28;20045;-74
2022/07/12 04:48:38;;;;;;;3.53;1.05;;;;;;;;;;5052942;28;20057;-74
2022/07/12 04:51:04;;;;;;;1.70;0.93;;;;;;;;;;5034270;28;20073;-73
2022/07/12 04:53:30;;;;;;;1.95;0.90;;;;;;;;;;5033813;28;20081;-73
2022/07/12 04:55:57;;;;;;;2.08;1.08;;;;;;;;;;5052468;28;20069;-74
2022/07/12 04:58:23;;;;;;;2.10;1.10;;;;;;;;;;5052277;28;20045;-73
2022/07/12 05:00:49;;;;;;;3.40;1.40;;;;;;;;;;5052612;28;20037;-73
2022/07/12 05:03:15;;;;;;;4.50;1.90;;;;;;;;;;5048360;28;20044;-73
2022/07/12 05:05:41;;;;;;;4.03;2.22;;;;;;;;;;5033678;28;20040;-73
2022/07/12 05:08:07;;;;;;;4.90;2.60;;;;;;;;;;5052620;28;20041;-74
2022/07/12 05:10:33;;;;;;;4.50;2.50;;;;;;;;;;5051997;28;20059;-73
2022/07/12 05:12:59;;;;;;;4.88;2.78;;;;;;;;;;5050049;28;20036;-73
2022/07/12 05:15:25;;;;;;;7.18;3.35;;;;;;;;;;5052584;28;20067;-73
2022/07/12 05:17:51;;;;;;;5.30;3.50;;;;;;;;;;5052766;28;20052;-74
2022/07/12 05:20:17;;;;;;;7.97;4.80;;;;;;;;;;5049653;28;20553;-74
2022/07/12 05:22:43;;;;;;;6.80;5.10;;;;;;;;;;5032058;28;20056;-73
2022/07/12 05:25:09;;;;;;;7.75;5.35;;;;;;;;;;5050310;28;20048;-73
2022/07/12 05:27:38;;;;;;;8.13;5.70;;;;;;;;;;5032575;28;20049;-73
2022/07/12 05:30:05;;;;;;;8.20;5.32;;;;;;;;;;5047795;28;20041;-73
2022/07/12 05:32:31;;;;;;;8.40;5.85;;;;;;;;;;5051818;28;20048;-73
2022/07/12 05:34:57;;;;;;;9.70;5.72;;;;;;;;;;5052424;28;20048;-73
2022/07/12 05:37:26;;;;;;;7.03;5.40;;;;;;;;;;5055033;28;20060;-74
2022/07/12 05:39:52;;;;;;;8.40;5.18;;;;;;;;;;5055126;28;20041;-74
2022/07/12 05:42:18;;;;;;;7.82;5.32;;;;;;;;;;5055639;28;20415;-73
2022/07/12 05:44:44;;;;;;;7.57;5.82;;;;;;;;;;5056335;28;20045;-73
2022/07/12 05:47:12;;;;;;;7.30;5.88;;;;;;;;;;5056181;28;20048;-73
2022/07/12 05:49:38;;;;;;;10.13;6.50;;;;;;;;;;5053756;28;20044;-73
2022/07/12 05:54:48;;;;;;;7.63;5.97;;;;;;;;;;5056217;28;20045;-74
2022/07/12 05:57:15;;;;;;;7.32;5.90;;;;;;;;;;5036925;28;20090;-73
2022/07/12 05:59:41;;;;;;;7.78;6.07;;;;;;;;;;5056039;28;20512;-73
2022/07/12 06:02:07;;;;;;;7.95;5.90;;;;;;;;;;5055879;28;20191;-74
2022/07/12 06:04:33;;;;;;;6.80;5.80;;;;;;;;;;5033293;28;20044;-74
2022/07/12 06:06:59;;;;;;;8.00;6.13;;;;;;;;;;5051612;28;20403;-74
2022/07/12 06:09:25;;;;;;;7.25;5.68;;;;;;;;;;5055702;28;20044;-73
2022/07/12 06:11:52;;;;;;;6.45;5.05;;;;;;;;;;5033519;28;20045;-72
2022/07/12 06:14:18;;;;;;;7.90;5.20;;;;;;;;;;5051198;28;20033;-72
2022/07/12 06:16:44;;;;;;;6.95;5.13;;;;;;;;;;5053810;28;20415;-72
2022/07/12 06:19:10;;;;;;;6.80;5.40;;;;;;;;;;5048680;28;20091;-73
2022/07/12 06:21:36;;;;;;;7.10;5.60;;;;;;;;;;5036473;28;20056;-72
2022/07/12 06:24:02;;;;;;;6.70;5.20;;;;;;;;;;5054543;28;20057;-73
2022/07/12 06:26:28;;;;;;;7.63;5.30;;;;;;;;;;5054432;28;20041;-72
2022/07/12 06:28:54;;;;;;;6.88;5.53;;;;;;;;;;5053510;28;20548;-72
2022/07/12 06:31:20;;;;;;;6.70;5.25;;;;;;;;;;5037811;28;20446;-73
2022/07/12 06:33:46;;;;;;;6.18;5.20;;;;;;;;;;5053017;28;20557;-73
2022/07/12 06:36:12;;;;;;;7.43;5.35;;;;;;;;;;5037307;28;20052;-72
2022/07/12 06:38:38;;;;;;;6.85;5.82;;;;;;;;;;5067522;28;20060;-72
2022/07/12 06:41:04;;;;;;;8.85;6.15;;;;;;;;;;5037182;28;20049;-73
2022/07/12 06:43:30;;;;;;;9.38;7.38;;;;;;;;;;5055210;28;20041;-73
2022/07/12 06:45:56;;;;;;;10.63;6.80;;;;;;;;;;5054254;28;20045;-73
2022/07/12 06:48:22;;;;;;;8.10;6.78;;;;;;;;;;5036522;28;20041;-73
2022/07/12 06:50:48;;;;;;;8.40;7.22;;;;;;;;;;5020552;28;20403;-73
2022/07/12 06:53:15;;;;;;;8.57;7.35;;;;;;;;;;5030901;28;20044;-73
2022/07/12 06:55:42;;;;;;;9.25;7.75;;;;;;;;;;5059278;28;20145;-73
2022/07/12 06:58:08;;;;;;;8.15;6.95;;;;;;;;;;5053363;28;20048;-73
2022/07/12 07:00:35;;;;;;;8.27;7.38;;;;;;;;;;5036685;28;20045;-73
2022/07/12 07:03:01;;;;;;;9.07;7.80;;;;;;;;;;5052891;28;20044;-72
2022/07/12 07:05:27;;;;;;;8.43;7.50;;;;;;;;;;5054281;28;20067;-73
2022/07/12 07:07:53;;;;;;;8.30;7.18;;;;;;;;;;5052641;28;20084;-73
2022/07/12 07:10:19;;;;;;;12.27;7.80;;;;;;;;;;5051402;28;20120;-80
2022/07/12 07:12:45;;;;;;;9.40;7.57;;;;;;;;;;5049705;28;20049;-73
2022/07/12 07:15:13;;;;;;;8.80;7.70;;;;;;;;;;5034243;28;20052;-73
2022/07/12 07:17:39;;;;;;;14.55;7.70;;;;;;;;;;5034567;28;20057;-75
2022/07/12 07:20:06;;;;;;;12.40;7.72;;;;;;;;;;5055345;28;20468;-73
2022/07/12 07:22:32;;;;;;;9.88;6.57;;;;;;;;;;5053482;28;20132;-74
2022/07/12 07:24:58;;;;;;;9.15;6.70;;;;;;;;;;5053357;28;20114;-74
2022/07/12 07:27:24;;;;;;;9.43;6.85;;;;;;;;;;5051536;28;20483;-76
2022/07/12 07:32:35;;;;;;;9.52;6.88;;;;;;;;;;5057234;28;20052;-75
2022/07/12 07:35:01;;;;;;;8.93;6.85;;;;;;;;;;5063180;28;20040;-76
2022/07/12 07:37:27;;;;;;;8.98;6.28;;;;;;;;;;5057361;28;20086;-79
2022/07/12 07:39:53;;;;;;;8.18;5.93;;;;;;;;;;5055849;28;20124;-80
2022/07/12 07:42:19;;;;;;;8.75;6.20;;;;;;;;;;5040710;28;20044;-76
2022/07/12 07:44:46;;;;;;;8.88;5.90;;;;;;;;;;5053093;28;20037;-75
2022/07/12 07:47:12;;;;;;;9.00;6.75;;;;;;;;;;5051593;28;20106;-75
2022/07/12 07:49:37;;;;;;;10.32;6.15;;;;;;;;;;5052372;28;20114;-75
2022/07/12 07:52:04;;;;;;;9.27;5.57;;;;;;;;;;5054924;28;20095;-74
2022/07/12 07:54:30;;;;;;;7.63;5.90;;;;;;;;;;5050437;28;20048;-76
2022/07/12 07:56:56;;;;;;;7.47;5.70;;;;;;;;;;5034071;28;20041;-75
2022/07/12 07:59:22;;;;;;;9.02;5.45;;;;;;;;;;5042422;28;20127;-76
2022/07/12 08:01:52;;;;;;;9.55;5.80;;;;;;;;;;5052825;28;20045;-75
2022/07/12 08:04:18;;;;;;;6.87;5.07;;;;;;;;;;5052127;28;20041;-77
2022/07/12 08:06:44;;;;;;;7.45;5.10;;;;;;;;;;5053655;28;20146;-76
2022/07/12 08:09:11;;;;;;;8.25;5.15;;;;;;;;;;5053583;28;20037;-75
2022/07/12 08:11:37;;;;;;;6.63;5.15;;;;;;;;;;5053352;28;20037;-76
2022/07/12 08:14:07;;;;;;;9.52;5.80;;;;;;;;;;5052612;28;20045;-77
2022/07/12 08:16:34;;;;;;;7.73;5.73;;;;;;;;;;5041078;28;20046;-75
2022/07/12 08:19:00;;;;;;;7.68;4.57;;;;;;;;;;5015593;28;20044;-76
2022/07/12 08:21:26;;;;;;;7.30;5.75;;;;;;;;;;5033829;28;20050;-75
2022/07/12 08:23:53;;;;;;;6.82;5.50;;;;;;;;;;5051052;28;20041;-76
2022/07/12 08:26:19;;;;;;;7.88;5.45;;;;;;;;;;5051255;28;20040;-76
2022/07/12 08:28:45;;;;;;;6.70;5.35;;;;;;;;;;5050019;28;20045;-76
2022/07/12 08:31:13;;;;;;;7.95;5.60;;;;;;;;;;5051481;28;20052;-75
2022/07/12 08:33:40;;;;;;;9.00;4.90;;;;;;;;;;5049331;28;20052;-75
2022/07/12 08:36:06;;;;;;;7.40;4.28;;;;;;;;;;5050591;28;20084;-76
2022/07/12 08:38:33;;;;;;;9.05;4.70;;;;;;;;;;5030946;28;20510;-76
2022/07/12 08:40:59;;;;;;;10.15;5.50;;;;;;;;;;5033677;28;20499;-76
2022/07/12 08:43:25;;;;;;;6.20;4.47;;;;;;;;;;5042497;28;20052;-75
2022/07/12 08:45:51;;;;;;;6.10;4.05;;;;;;;;;;5036900;28;20399;-75
2022/07/12 08:48:17;;;;;;;5.72;4.50;;;;;;;;;;5051392;28;20037;-74
2022/07/12 08:50:59;;;;;;;6.53;4.18;;;;;;;;;;5036659;28;20060;-75
2022/07/12 08:53:25;;;;;;;5.57;4.10;;;;;;;;;;5051277;28;20060;-73
2022/07/12 08:55:51;;;;;;;7.13;3.60;;;;;;;;;;5052969;28;20475;-73
2022/07/12 08:58:18;;;;;;;7.63;3.78;;;;;;;;;;5051874;28;20074;-74
2022/07/12 09:00:44;;;;;;;5.60;3.55;;;;;;;;;;5040081;28;20058;-74
2022/07/12 09:03:12;;;;;;;5.80;4.20;;;;;;;;;;5048406;28;20491;-74
2022/07/12 09:05:38;;;;;;;7.28;3.58;;;;;;;;;;5052900;28;20049;-75
2022/07/12 09:08:08;;;;;;;5.25;3.50;;;;;;;;;;5051450;28;20053;-74
2022/07/12 09:10:54;;;;;;;5.45;3.17;;;;;;;;;;5052468;28;20425;-74
2022/07/12 09:13:21;;;;;;;4.47;2.47;;;;;;;;;;5024146;28;20060;-75
2022/07/12 09:15:48;;;;;;;4.07;2.05;;;;;;;;;;5040535;28;20135;-74
2022/07/12 09:18:22;;;;;;;5.85;2.20;;;;;;;;;;5040791;28;20462;-75
2022/07/12 09:20:52;;;;;;;5.80;2.50;;;;;;;;;;5058155;28;20395;-74
2022/07/12 09:23:18;;;;;;;5.73;2.20;;;;;;;;;;5058769;28;20041;-74
2022/07/12 09:25:45;;;;;;;3.97;2.20;;;;;;;;;;5058281;28;20299;-74
2022/07/12 09:28:11;;;;;;;4.10;2.00;;;;;;;;;;5039021;28;20387;-74
2022/07/12 09:30:47;;;;;;;3.35;1.90;;;;;;;;;;5037720;28;20033;-74
2022/07/12 09:36:06;;;;;;;5.05;2.17;;;;;;;;;;5056540;28;20057;-74
2022/07/12 09:38:39;;;;;;;4.63;2.22;;;;;;;;;;5058282;28;20045;-75
2022/07/12 09:41:08;;;;;;;3.85;1.90;;;;;;;;;;5043282;28;20398;-73
2022/07/12 09:43:35;;;;;;;4.20;2.10;;;;;;;;;;5057880;28;20128;-73
2022/07/12 09:46:01;;;;;;;5.20;2.70;;;;;;;;;;5059551;28;20558;-75
2022/07/12 09:48:28;;;;;;;4.60;2.40;;;;;;;;;;5040032;28;20036;-74
2022/07/12 09:50:56;;;;;;;4.93;3.03;;;;;;;;;;5058355;28;20515;-74
2022/07/12 09:53:22;;;;;;;4.95;2.60;;;;;;;;;;5058963;28;20136;-75
2022/07/12 09:55:51;;;;;;;6.05;2.28;;;;;;;;;;5059022;28;20045;-74
2022/07/12 09:58:22;;;;;;;4.03;2.30;;;;;;;;;;5058984;28;20046;-73
2022/07/12 10:00:49;;;;;;;4.88;2.00;;;;;;;;;;5059037;28;20072;-73
2022/07/12 10:03:15;;;;;;;5.10;2.10;;;;;;;;;;5058375;28;20041;-74
2022/07/12 10:05:42;;;;;;;4.50;2.15;;;;;;;;;;5058175;28;20103;-74
2022/07/12 10:08:09;;;;;;;4.47;1.80;;;;;;;;;;5058687;28;20060;-74
2022/07/12 10:10:35;;;;;;;3.60;1.70;;;;;;;;;;5058262;28;20048;-73
2022/07/12 10:13:01;;;;;;;4.50;1.92;;;;;;;;;;5055399;28;20120;-74
2022/07/12 10:15:28;;;;;;;3.15;1.80;;;;;;;;;;5058181;28;20127;-74
2022/07/12 10:17:56;;;;;;;3.50;1.70;;;;;;;;;;5039990;28;20552;-75
2022/07/12 10:20:23;;;;;;;4.32;1.50;;;;;;;;;;5058878;28;20045;-73
2022/07/12 10:22:50;;;;;;;2.97;1.50;;;;;;;;;;5041889;28;20050;-74
2022/07/12 10:25:26;;;;;;;3.30;1.08;;;;;;;;;;5035603;28;20403;-73
2022/07/12 10:27:52;;;;;;;3.38;1.42;;;;;;;;;;5054003;28;20051;-74
2022/07/12 10:30:22;;;;;;;2.88;1.27;;;;;;;;;;5054507;28;20063;-74
2022/07/12 10:32:49;;;;;;;2.78;1.13;;;;;;;;;;5050073;28;20052;-74
2022/07/12 10:35:26;;;;;;;3.38;1.23;;;;;;;;;;5053659;28;20045;-74
2022/07/12 10:38:11;;;;;;;2.33;0.90;;;;;;;;;;5053718;28;20064;-74
2022/07/12 10:40:37;;;;;;;1.92;0.80;;;;;;;;;;5054675;28;20399;-74
2022/07/12 10:43:03;;;;;;;3.25;1.40;;;;;;;;;;5054079;28;20044;-74
2022/07/12 10:45:38;;;;;;;4.20;1.30;;;;;;;;;;5053093;28;20040;-74
2022/07/12 10:48:08;;;;;;;2.67;1.00;;;;;;;;;;5052048;28;20067;-74
2022/07/12 10:50:45;;;;;;;4.07;1.40;;;;;;;;;;5054226;28;20049;-73
2022/07/12 10:53:21;;;;;;;2.55;1.40;;;;;;;;;;5050712;28;20057;-74
2022/07/12 10:56:07;;;;;;;4.72;1.00;;;;;;;;;;5051430;28;20044;-74
2022/07/12 10:58:38;;;;;;;3.45;1.40;;;;;;;;;;5056985;28;20048;-75
2022/07/12 11:01:07;;;;;;;3.13;1.30;;;;;;;;;;5052344;28;20060;-75
2022/07/12 11:03:40;;;;;;;3.33;1.40;;;;;;;;;;5050019;28;20499;-75
2022/07/12 11:06:06;;;;;;;2.83;1.10;;;;;;;;;;5052372;28;20053;-74
2022/07/12 11:08:34;;;;;;;2.30;0.95;;;;;;;;;;5046413;28;20507;-75
2022/07/12 11:11:00;;;;;;;4.60;0.90;;;;;;;;;;5062332;28;20080;-74
2022/07/12 11:13:27;;;;;;;2.53;0.90;;;;;;;;;;5052667;28;20045;-74
2022/07/12 11:15:57;;;;;;;2.88;1.10;;;;;;;;;;5052558;28;20733;-75
2022/07/12 11:18:28;;;;;;;3.13;1.20;;;;;;;;;;5053375;28;20104;-73
2022/07/12 11:20:55;;;;;;;3.00;1.00;;;;;;;;;;5052641;28;20069;-74
2022/07/12 11:23:22;;;;;;;2.05;0.70;;;;;;;;;;5045130;28;20061;-74
2022/07/12 11:25:48;;;;;;;3.03;0.80;;;;;;;;;;5051179;28;20033;-74
2022/07/12 11:28:14;;;;;;;4.75;0.63;;;;;;;;;;5053047;28;20471;-74
2022/07/12 11:30:49;;;;;;;1.48;0.50;;;;;;;;;;5049527;28;20072;-74
2022/07/12 11:33:15;;;;;;;1.00;0.40;;;;;;;;;;5050460;28;20049;-73
2022/07/12 11:35:44;;;;;;;1.42;0.55;;;;;;;;;;5051941;28;20045;-74
2022/07/12 11:38:10;;;;;;;0.80;0.45;;;;;;;;;;5053935;28;20128;-74
2022/07/12 11:40:36;;;;;;;2.08;0.50;;;;;;;;;;5052558;28;20505;-74
2022/07/12 11:43:04;;;;;;;3.17;0.65;;;;;;;;;;5053351;28;20442;-74
2022/07/12 11:45:31;;;;;;;2.58;0.63;;;;;;;;;;5049098;28;20040;-74
2022/07/12 11:47:58;;;;;;;1.50;0.60;;;;;;;;;;5050396;28;20045;-74
2022/07/12 11:50:24;;;;;;;2.75;0.80;;;;;;;;;;5052594;28;20052;-74
2022/07/12 11:52:51;;;;;;;2.85;0.68;;;;;;;;;;5033915;28;20037;-74
2022/07/12 11:55:17;;;;;;;1.77;0.60;;;;;;;;;;5022658;28;20040;-73
2022/07/12 11:57:43;;;;;;;1.50;0.50;;;;;;;;;;5043721;28;20487;-74
2022/07/12 12:00:18;;;;;;;1.95;0.50;;;;;;;;;;5044833;28;20049;-74
2022/07/12 12:02:45;;;;;;;2.03;0.40;;;;;;;;;;5042196;28;20110;-74
2022/07/12 12:05:11;;;;;;;2.30;0.60;;;;;;;;;;5046679;28;20049;-73
2022/07/12 12:07:37;;;;;;;1.55;0.55;;;;;;;;;;5041773;28;20140;-73
2022/07/12 12:10:03;;;;;;;1.95;0.60;;;;;;;;;;5040794;28;20526;-73
2022/07/12 12:12:38;;;;;;;2.10;0.50;;;;;;;;;;5042958;28;20045;-73
2022/07/12 12:15:06;;;;;;;1.48;0.60;;;;;;;;;;5037295;28;20060;-73
2022/07/12 12:17:32;;;;;;;4.32;0.50;;;;;;;;;;5009632;28;20041;-73
2022/07/12 12:19:59;;;;;;;3.30;0.70;;;;;;;;;;5046106;28;20041;-74
2022/07/12 12:22:44;;;;;;;1.13;0.40;;;;;;;;;;5044090;28;20426;-73
2022/07/12 12:25:14;;;;;;;1.67;0.50;;;;;;;;;;5048696;28;20124;-74
2022/07/12 12:27:43;;;;;;;1.27;0.40;;;;;;;;;;5043566;28;20053;-73
2022/07/12 12:30:09;;;;;;;2.33;0.50;;;;;;;;;;5047140;28;20063;-73
2022/07/12 12:32:55;;;;;;;1.23;0.40;;;;;;;;;;5044158;28;20049;-72
2022/07/12 12:35:22;;;;;;;1.45;0.47;;;;;;;;;;5039237;28;20705;-74
2022/07/12 12:37:51;;;;;;;1.35;0.60;;;;;;;;;;5019866;28;20072;-74
2022/07/12 12:40:24;;;;;;;1.73;0.60;;;;;;;;;;5043318;28;20041;-73
2022/07/12 12:42:51;;;;;;;2.72;0.60;;;;;;;;;;5040194;28;20041;-74
2022/07/12 12:45:21;;;;;;;2.88;0.60;;;;;;;;;;5045870;28;20063;-74
2022/07/12 12:47:54;;;;;;;1.08;0.55;;;;;;;;;;5046505;28;20052;-73
2022/07/12 12:50:39;;;;;;;4.72;0.60;;;;;;;;;;5042057;28;20084;-74
2022/07/12 12:53:09;;;;;;;4.90;0.80;;;;;;;;;;5043588;28;20057;-73
2022/07/12 12:55:35;;;;;;;2.30;0.70;;;;;;;;;;5039469;28;20053;-73
2022/07/12 12:58:02;;;;;;;3.20;0.80;;;;;;;;;;5043163;28;20143;-73
2022/07/12 13:00:29;;;;;;;3.20;0.73;;;;;;;;;;5038081;28;20124;-74
2022/07/12 13:02:58;;;;;;;1.75;0.70;;;;;;;;;;5040495;28;20052;-74
2022/07/12 13:05:25;;;;;;;1.98;0.70;;;;;;;;;;5045042;28;20099;-73
2022/07/12 13:07:51;;;;;;;2.15;0.60;;;;;;;;;;5040818;28;20173;-74
2022/07/12 13:10:17;;;;;;;3.00;0.70;;;;;;;;;;5039629;28;20037;-73
2022/07/12 13:12:44;;;;;;;3.13;0.60;;;;;;;;;;5043400;28;20052;-73
2022/07/12 13:15:10;;;;;;;3.42;0.90;;;;;;;;;;5021309;28;20072;-74
2022/07/12 13:17:37;;;;;;;2.42;0.60;;;;;;;;;;5046287;28;20043;-73
2022/07/12 13:20:05;;;;;;;1.95;0.52;;;;;;;;;;5014596;28;20492;-74
2022/07/12 13:22:31;;;;;;;2.38;0.63;;;;;;;;;;5041978;28;20075;-73
2022/07/12 13:24:57;;;;;;;1.55;0.50;;;;;;;;;;5026002;28;20041;-73
2022/07/12 13:27:24;;;;;;;1.42;0.40;;;;;;;;;;5024537;28;20045;-73
2022/07/12 13:29:50;;;;;;;1.90;0.40;;;;;;;;;;5042437;28;20045;-73
2022/07/12 13:32:16;;;;;;;1.67;0.50;;;;;;;;;;5038702;28;20060;-73
2022/07/12 13:34:42;;;;;;;1.38;0.50;;;;;;;;;;5022380;28;20042;-73
2022/07/12 13:37:09;;;;;;;1.45;0.40;;;;;;;;;;5038760;28;20396;-73
2022/07/12 13:42:20;;;;;;;1.48;0.43;;;;;;;;;;5027263;28;20629;-73
2022/07/12 13:44:46;;;;;;;4.03;0.50;;;;;;;;;;5041848;28;20044;-73
2022/07/12 13:47:12;;;;;;;1.63;0.60;;;;;;;;;;5041161;28;20037;-74
2022/07/12 13:49:38;;;;;;;1.83;0.60;;;;;;;;;;5041410;28;20419;-73
2022/07/12 13:52:04;;;;;;;1.05;0.45;;;;;;;;;;5042265;28;20050;-80
2022/07/12 13:54:30;;;;;;;1.35;0.55;;;;;;;;;;5050802;28;20045;-71
2022/07/12 13:56:56;;;;;;;1.52;0.50;;;;;;;;;;5039535;28;20046;-72
2022/07/12 13:59:23;;;;;;;2.05;0.50;;;;;;;;;;5048015;28;20094;-72
2022/07/12 14:01:49;;;;;;;10.48;0.70;;;;;;;;;;5008200;28;20055;-72
2022/07/12 14:04:15;;;;;;;2.47;0.50;;;;;;;;;;5044601;28;20049;-72
2022/07/12 14:06:41;;;;;;;2.05;0.43;;;;;;;;;;5025875;28;20087;-72
2022/07/12 14:09:07;;;;;;;1.80;0.50;;;;;;;;;;5043272;28;20045;-72
2022/07/12 14:11:34;;;;;;;1.38;0.50;;;;;;;;;;5044072;28;20049;-72
2022/07/12 14:14:00;;;;;;;2.40;0.50;;;;;;;;;;5041470;28;20053;-72
2022/07/12 14:16:26;;;;;;;2.55;0.60;;;;;;;;;;5046076;28;20546;-73
2022/07/12 14:18:52;;;;;;;1.10;0.50;;;;;;;;;;5047152;28;20135;-74
2022/07/12 14:21:18;;;;;;;2.22;0.60;;;;;;;;;;5043394;28;20049;-72
2022/07/12 14:23:44;;;;;;;1.73;0.50;;;;;;;;;;5046366;28;20135;-73
2022/07/12 14:26:10;;;;;;;1.80;0.60;;;;;;;;;;5044637;28;20434;-73
2022/07/12 14:28:36;;;;;;;2.90;0.68;;;;;;;;;;5045551;28;20050;-75
2022/07/12 14:31:04;;;;;;;2.72;0.60;;;;;;;;;;5047292;28;20098;-73
2022/07/12 14:33:30;;;;;;;2.10;0.60;;;;;;;;;;5051065;28;20490;-72
2022/07/12 14:35:57;;;;;;;0.80;0.50;;;;;;;;;;5045705;28;20045;-71
2022/07/12 14:38:23;;;;;;;2.28;0.55;;;;;;;;;;5043383;28;20052;-72
2022/07/12 14:40:49;;;;;;;4.55;0.80;;;;;;;;;;5045656;28;20060;-72
2022/07/12 14:43:16;;;;;;;3.58;0.70;;;;;;;;;;5026120;28;20045;-72
2022/07/12 14:45:42;;;;;;;3.33;0.60;;;;;;;;;;5043316;28;20113;-72
2022/07/12 14:48:09;;;;;;;2.22;0.50;;;;;;;;;;5048992;28;20410;-72
2022/07/12 14:50:35;;;;;;;3.25;0.60;;;;;;;;;;5044471;28;20068;-72
2022/07/12 14:53:01;;;;;;;1.83;0.60;;;;;;;;;;5026166;28;20041;-72
2022/07/12 14:55:27;;;;;;;1.50;0.60;;;;;;;;;;5041678;28;20399;-72